createdAt,value
2023-05-17T00:01:58.065Z,102362.00
2023-05-17T00:04:24.607Z,102359.25
2023-05-17T00:06:51.137Z,102359.25
2023-05-17T00:09:17.677Z,102363.88
2023-05-17T00:11:44.193Z,102362.00
2023-05-17T00:14:11.788Z,102360.28
2023-05-17T00:16:39.200Z,102364.75
2023-05-17T00:19:05.855Z,102374.00
2023-05-17T00:21:32.474Z,102375.88
2023-05-17T00:23:59.032Z,102375.88
2023-05-17T00:26:25.571Z,102377.78
2023-05-17T00:28:52.160Z,102375.88
2023-05-17T00:31:18.677Z,102379.66
2023-05-17T00:33:46.512Z,102371.41
2023-05-17T00:36:13.312Z,102381.53
2023-05-17T00:38:39.835Z,102369.69
2023-05-17T00:41:06.697Z,102372.44
2023-05-17T00:43:33.236Z,102367.97
2023-05-17T00:45:59.762Z,102376.22
2023-05-17T00:48:28.722Z,102373.47
2023-05-17T00:50:56.189Z,102370.88
2023-05-17T00:53:23.154Z,102377.22
2023-05-17T00:55:50.546Z,102372.59
2023-05-17T00:58:17.236Z,102375.34
2023-05-17T01:00:46.714Z,102369.00
2023-05-17T01:03:13.418Z,102365.38
2023-05-17T01:05:40.569Z,102372.59
2023-05-17T01:08:07.128Z,102374.47
2023-05-17T01:10:44.483Z,102377.22
2023-05-17T01:13:19.946Z,102360.91
2023-05-17T01:15:57.041Z,102366.41
2023-05-17T01:18:32.803Z,102372.91
2023-05-17T01:21:01.852Z,102369.31
2023-05-17T01:24:07.752Z,102367.44
2023-05-17T01:26:39.723Z,102371.31
2023-05-17T01:29:09.352Z,102370.47
2023-05-17T01:31:39.256Z,102360.34
2023-05-17T01:34:09.416Z,102365.84
2023-05-17T01:36:36.267Z,102363.25
2023-05-17T01:39:03.467Z,102364.09
2023-05-17T01:41:40.080Z,102360.34
2023-05-17T01:44:06.533Z,102364.09
2023-05-17T01:46:39.983Z,102370.63
2023-05-17T01:49:10.731Z,102364.09
2023-05-17T01:51:47.469Z,102360.50
2023-05-17T01:54:15.580Z,102373.34
2023-05-17T01:56:47.939Z,102362.38
2023-05-17T01:59:21.717Z,102366.00
2023-05-17T02:01:49.624Z,102358.78
2023-05-17T02:04:16.248Z,102365.28
2023-05-17T02:06:42.790Z,102357.06
2023-05-17T02:09:09.276Z,102362.53
2023-05-17T02:11:36.569Z,102359.81
2023-05-17T02:14:03.460Z,102368.91
2023-05-17T02:16:30.052Z,102364.28
2023-05-17T02:18:56.623Z,102364.44
2023-05-17T02:21:23.172Z,102373.53
2023-05-17T02:23:49.661Z,102372.81
2023-05-17T02:26:18.761Z,102370.94
2023-05-17T02:28:45.313Z,102373.69
2023-05-17T02:31:11.874Z,102370.94
2023-05-17T02:33:38.527Z,102369.22
2023-05-17T02:36:05.393Z,102378.31
2023-05-17T02:38:31.974Z,102379.31
2023-05-17T02:40:58.481Z,102376.56
2023-05-17T02:43:25.023Z,102380.19
2023-05-17T02:45:51.557Z,102373.84
2023-05-17T02:48:18.374Z,102377.44
2023-05-17T02:50:45.242Z,102383.94
2023-05-17T02:53:11.897Z,102387.72
2023-05-17T02:55:38.477Z,102390.44
2023-05-17T02:58:05.056Z,102395.94
2023-05-17T03:00:32.590Z,102393.19
2023-05-17T03:02:59.314Z,102401.41
2023-05-17T03:05:26.051Z,102393.19
2023-05-17T03:07:52.801Z,102395.94
2023-05-17T03:10:19.558Z,102406.03
2023-05-17T03:12:46.658Z,102401.41
2023-05-17T03:15:17.082Z,102404.31
2023-05-17T03:17:44.130Z,102410.66
2023-05-17T03:20:10.996Z,102411.69
2023-05-17T03:22:37.619Z,102408.94
2023-05-17T03:25:05.815Z,102413.56
2023-05-17T03:27:33.348Z,102421.78
2023-05-17T03:30:00.380Z,102426.41
2023-05-17T03:32:27.407Z,102420.06
2023-05-17T03:34:54.056Z,102424.53
2023-05-17T03:37:20.760Z,102421.78
2023-05-17T03:39:48.478Z,102426.56
2023-05-17T03:42:15.549Z,102427.44
2023-05-17T03:44:42.246Z,102432.94
2023-05-17T03:47:08.942Z,102435.66
2023-05-17T03:49:35.535Z,102443.91
2023-05-17T03:52:03.561Z,102436.69
2023-05-17T03:54:30.143Z,102446.66
2023-05-17T03:56:56.643Z,102441.16
2023-05-17T03:59:23.866Z,102440.28
2023-05-17T04:01:51.001Z,102441.31
2023-05-17T04:04:18.174Z,102444.06
2023-05-17T04:06:45.367Z,102444.06
2023-05-17T04:09:13.942Z,102448.69
2023-05-17T04:11:41.011Z,102445.06
2023-05-17T04:14:07.587Z,102446.78
2023-05-17T04:16:34.672Z,102448.69
2023-05-17T04:19:01.465Z,102454.16
2023-05-17T04:21:29.638Z,102460.66
2023-05-17T04:23:56.269Z,102458.78
2023-05-17T04:26:23.116Z,102465.28
2023-05-17T04:28:50.135Z,102467.16
2023-05-17T04:31:17.900Z,102476.25
2023-05-17T04:33:45.440Z,102474.53
2023-05-17T04:36:12.861Z,102481.75
2023-05-17T04:38:40.282Z,102481.75
2023-05-17T04:41:09.540Z,102485.50
2023-05-17T04:43:38.211Z,102491.00
2023-05-17T04:46:08.981Z,102495.63
2023-05-17T04:48:36.003Z,102504.72
2023-05-17T04:51:06.906Z,102508.31
2023-05-17T04:53:33.685Z,102503.84
2023-05-17T04:56:06.909Z,102510.34
2023-05-17T04:58:33.621Z,102513.09
2023-05-17T05:01:01.901Z,102515.84
2023-05-17T05:03:29.468Z,102513.25
2023-05-17T05:05:56.389Z,102514.09
2023-05-17T05:08:23.608Z,102517.72
2023-05-17T05:10:52.032Z,102514.09
2023-05-17T05:13:22.671Z,102518.56
2023-05-17T05:15:51.128Z,102521.47
2023-05-17T05:18:17.919Z,102522.34
2023-05-17T05:20:46.528Z,102526.81
2023-05-17T05:23:13.686Z,102532.28
2023-05-17T05:25:43.606Z,102529.53
2023-05-17T05:28:11.296Z,102538.78
2023-05-17T05:30:39.803Z,102547.03
2023-05-17T05:33:06.844Z,102540.66
2023-05-17T05:35:34.808Z,102544.28
2023-05-17T05:38:01.319Z,102541.53
2023-05-17T05:40:28.632Z,102545.13
2023-05-17T05:42:56.345Z,102541.53
2023-05-17T05:45:22.934Z,102547.03
2023-05-17T05:47:52.010Z,102547.88
2023-05-17T05:50:18.820Z,102554.22
2023-05-17T05:52:46.723Z,102548.91
2023-05-17T05:55:13.340Z,102559.72
2023-05-17T05:57:39.887Z,102562.47
2023-05-17T06:00:07.249Z,102560.56
2023-05-17T06:02:39.559Z,102577.03
2023-05-17T06:05:07.069Z,102573.44
2023-05-17T06:07:33.745Z,102584.41
2023-05-17T06:10:00.291Z,102583.38
2023-05-17T06:12:26.844Z,102581.66
2023-05-17T06:14:53.360Z,102588.88
2023-05-17T06:17:21.446Z,102590.75
2023-05-17T06:19:49.264Z,102591.63
2023-05-17T06:22:16.211Z,102592.47
2023-05-17T06:24:42.874Z,102605.31
2023-05-17T06:27:09.460Z,102601.56
2023-05-17T06:29:36.401Z,102603.44
2023-05-17T06:32:03.028Z,102601.56
2023-05-17T06:34:29.554Z,102607.06
2023-05-17T06:36:56.054Z,102606.03
2023-05-17T06:39:22.578Z,102599.69
2023-05-17T06:41:49.141Z,102607.91
2023-05-17T06:44:17.425Z,102603.28
2023-05-17T06:46:44.045Z,102604.16
2023-05-17T06:49:10.695Z,102613.25
2023-05-17T06:51:37.199Z,102613.25
2023-05-17T06:54:03.728Z,102611.38
2023-05-17T06:56:30.431Z,102607.75
2023-05-17T06:58:56.921Z,102610.50
2023-05-17T07:01:23.427Z,102607.75
2023-05-17T07:03:50.201Z,102609.50
2023-05-17T07:06:16.821Z,102606.75
2023-05-17T07:08:44.552Z,102613.09
2023-05-17T07:11:11.025Z,102610.34
2023-05-17T07:13:37.531Z,102611.22
2023-05-17T07:16:04.494Z,102606.75
2023-05-17T07:18:31.125Z,102615.69
2023-05-17T07:20:57.732Z,102612.94
2023-05-17T07:23:24.247Z,102623.91
2023-05-17T07:25:51.085Z,102624.78
2023-05-17T07:28:17.744Z,102624.78
2023-05-17T07:30:44.325Z,102634.75
2023-05-17T07:33:11.432Z,102636.47
2023-05-17T07:35:38.014Z,102638.34
2023-05-17T07:38:04.569Z,102641.97
2023-05-17T07:40:31.055Z,102643.84
2023-05-17T07:42:57.585Z,102639.22
2023-05-17T07:45:24.230Z,102639.22
2023-05-17T07:47:53.185Z,102639.06
2023-05-17T07:50:19.833Z,102644.69
2023-05-17T07:52:46.365Z,102650.03
2023-05-17T07:55:13.779Z,102654.66
2023-05-17T07:57:42.396Z,102657.41
2023-05-17T08:00:12.713Z,102656.38
2023-05-17T08:02:40.456Z,102656.38
2023-05-17T08:05:08.439Z,102658.25
2023-05-17T08:07:35.230Z,102663.59
2023-05-17T08:10:02.017Z,102659.13
2023-05-17T08:12:28.562Z,102661.88
2023-05-17T08:14:55.081Z,102660.00
2023-05-17T08:17:22.345Z,102661.72
2023-05-17T08:19:49.151Z,102663.59
2023-05-17T08:22:16.248Z,102669.09
2023-05-17T08:24:45.148Z,102665.47
2023-05-17T08:27:11.801Z,102669.09
2023-05-17T08:29:40.743Z,102666.34
2023-05-17T08:32:07.646Z,102666.34
2023-05-17T08:34:36.834Z,102667.22
2023-05-17T08:37:03.655Z,102669.94
2023-05-17T08:39:31.457Z,102675.44
2023-05-17T08:41:59.630Z,102674.41
2023-05-17T08:44:28.404Z,102661.72
2023-05-17T08:46:56.652Z,102667.22
2023-05-17T08:49:25.868Z,102661.56
2023-05-17T08:51:54.239Z,102672.53
2023-05-17T08:54:21.085Z,102673.41
2023-05-17T08:56:52.317Z,102674.56
2023-05-17T08:59:21.812Z,102677.16
2023-05-17T09:01:51.922Z,102676.31
2023-05-17T09:04:18.834Z,102670.97
2023-05-17T09:06:45.728Z,102680.94
2023-05-17T09:09:12.460Z,102681.78
2023-05-17T09:11:39.147Z,102680.94
2023-05-17T09:14:06.927Z,102682.81
2023-05-17T09:16:37.567Z,102683.66
2023-05-17T09:19:07.086Z,102683.66
2023-05-17T09:21:34.158Z,102675.44
2023-05-17T09:24:08.019Z,102667.34
2023-05-17T09:26:46.103Z,102679.91
2023-05-17T09:29:16.813Z,102678.19
2023-05-17T09:31:44.437Z,102674.56
2023-05-17T09:34:11.656Z,102678.19
2023-05-17T09:36:42.026Z,102674.72
2023-05-17T09:39:13.678Z,102675.44
2023-05-17T09:41:46.615Z,102669.94
2023-05-17T09:44:14.563Z,102670.81
2023-05-17T09:46:49.099Z,102669.09
2023-05-17T09:49:17.607Z,102671.84
2023-05-17T09:51:47.358Z,102675.44
2023-05-17T09:54:14.182Z,102663.59
2023-05-17T09:56:41.126Z,102665.47
2023-05-17T09:59:15.597Z,102671.69
2023-05-17T10:01:45.217Z,102669.94
2023-05-17T10:04:12.775Z,102656.22
2023-05-17T10:09:13.899Z,102661.56
2023-05-17T10:11:43.079Z,102666.19
2023-05-17T10:14:22.994Z,102665.19
2023-05-17T10:16:51.169Z,102673.41
2023-05-17T10:19:21.061Z,102678.03
2023-05-17T10:21:49.924Z,102677.00
2023-05-17T10:24:17.092Z,102675.13
2023-05-17T10:26:44.171Z,102674.28
2023-05-17T10:29:11.053Z,102669.66
2023-05-17T10:31:37.636Z,102666.91
2023-05-17T10:34:06.343Z,102674.13
2023-05-17T10:36:33.968Z,102665.88
2023-05-17T10:39:02.297Z,102674.97
2023-05-17T10:41:34.742Z,102666.75
2023-05-17T10:44:04.392Z,102660.41
2023-05-17T10:46:31.628Z,102665.88
2023-05-17T10:49:00.386Z,102663.16
2023-05-17T10:51:33.807Z,102663.16
2023-05-17T10:54:04.237Z,102655.78
2023-05-17T10:56:31.562Z,102654.91
2023-05-17T10:59:24.279Z,102653.78
2023-05-17T11:01:57.865Z,102645.66
2023-05-17T11:04:25.837Z,102655.63
2023-05-17T11:07:13.558Z,102644.66
2023-05-17T11:09:40.951Z,102640.19
2023-05-17T11:12:10.034Z,102642.81
2023-05-17T11:14:45.842Z,102635.44
2023-05-17T11:17:20.279Z,102633.56
2023-05-17T11:19:50.984Z,102639.91
2023-05-17T11:22:17.740Z,102637.31
2023-05-17T11:24:45.454Z,102645.41
2023-05-17T11:27:13.793Z,102643.53
2023-05-17T11:29:42.280Z,102639.91
2023-05-17T11:32:10.799Z,102644.38
2023-05-17T11:34:38.575Z,102640.78
2023-05-17T11:37:11.157Z,102645.25
2023-05-17T11:39:37.781Z,102645.41
2023-05-17T11:42:04.618Z,102644.38
2023-05-17T11:44:33.431Z,102642.50
2023-05-17T11:47:11.418Z,102638.75
2023-05-17T11:49:39.569Z,102652.47
2023-05-17T11:52:07.040Z,102645.09
2023-05-17T11:54:34.548Z,102637.88
2023-05-17T11:57:03.671Z,102642.34
2023-05-17T11:59:38.456Z,102640.47
2023-05-17T12:02:06.599Z,102637.88
2023-05-17T12:04:37.386Z,102642.34
2023-05-17T12:07:04.356Z,102636.00
2023-05-17T12:09:31.434Z,102645.09
2023-05-17T12:11:59.902Z,102641.34
2023-05-17T12:14:26.497Z,102644.06
2023-05-17T12:16:56.268Z,102644.94
2023-05-17T12:19:26.034Z,102636.72
2023-05-17T12:21:52.696Z,102638.59
2023-05-17T12:24:19.372Z,102642.19
2023-05-17T12:26:47.253Z,102640.31
2023-05-17T12:29:19.171Z,102634.81
2023-05-17T12:31:48.959Z,102639.31
2023-05-17T12:34:17.769Z,102640.31
2023-05-17T12:36:44.922Z,102629.34
2023-05-17T12:39:13.016Z,102642.03
2023-05-17T12:41:40.695Z,102633.81
2023-05-17T12:44:15.387Z,102628.31
2023-05-17T12:46:43.815Z,102627.47
2023-05-17T12:49:12.054Z,102627.47
2023-05-17T12:51:43.637Z,102625.44
2023-05-17T12:54:29.511Z,102629.19
2023-05-17T12:56:57.215Z,102621.97
2023-05-17T12:59:28.907Z,102621.97
2023-05-17T13:01:57.007Z,102625.59
2023-05-17T13:04:34.430Z,102626.28
2023-05-17T13:07:03.618Z,102612.72
2023-05-17T13:09:32.045Z,102620.97
2023-05-17T13:12:01.371Z,102611.72
2023-05-17T13:14:47.633Z,102610.84
2023-05-17T13:17:26.053Z,102611.72
2023-05-17T13:19:54.061Z,102606.38
2023-05-17T13:22:20.665Z,102613.59
2023-05-17T13:24:47.416Z,102610.84
2023-05-17T13:27:14.021Z,102605.19
2023-05-17T13:29:42.696Z,102599.72
2023-05-17T13:32:11.936Z,102605.19
2023-05-17T13:34:39.379Z,102596.09
2023-05-17T13:37:09.394Z,102600.56
2023-05-17T13:39:38.035Z,102593.22
2023-05-17T13:42:05.456Z,102596.81
2023-05-17T13:44:32.142Z,102583.09
2023-05-17T13:46:58.640Z,102593.06
2023-05-17T13:49:25.460Z,102591.16
2023-05-17T13:51:52.022Z,102583.81
2023-05-17T13:54:20.167Z,102582.94
2023-05-17T13:56:46.824Z,102577.44
2023-05-17T13:59:13.455Z,102582.06
2023-05-17T14:01:41.091Z,102579.19
2023-05-17T14:04:07.702Z,102585.53
2023-05-17T14:06:34.337Z,102589.13
2023-05-17T14:09:01.146Z,102591.88
2023-05-17T14:11:27.943Z,102590.88
2023-05-17T14:13:54.537Z,102590.72
2023-05-17T14:16:22.894Z,102604.44
2023-05-17T14:18:49.895Z,102597.06
2023-05-17T14:21:16.578Z,102590.56
2023-05-17T14:23:43.100Z,102582.31
2023-05-17T14:26:09.694Z,102590.41
2023-05-17T14:28:38.248Z,102594.88
2023-05-17T14:31:06.707Z,102595.75
2023-05-17T14:33:33.782Z,102600.22
2023-05-17T14:36:00.459Z,102590.09
2023-05-17T14:38:28.347Z,102589.06
2023-05-17T14:40:54.917Z,102590.81
2023-05-17T14:43:22.033Z,102588.06
2023-05-17T14:45:48.527Z,102590.50
2023-05-17T14:48:15.168Z,102586.88
2023-05-17T14:50:41.875Z,102589.47
2023-05-17T14:53:08.355Z,102590.34
2023-05-17T14:55:34.916Z,102592.91
2023-05-17T14:58:02.580Z,102586.41
2023-05-17T15:00:29.513Z,102596.38
2023-05-17T15:02:56.314Z,102597.25
2023-05-17T15:05:24.169Z,102595.19
2023-05-17T15:07:50.931Z,102595.03
2023-05-17T15:10:17.635Z,102602.25
2023-05-17T15:12:44.220Z,102604.00
2023-05-17T15:15:11.168Z,102596.63
2023-05-17T15:17:37.944Z,102599.22
2023-05-17T15:20:05.278Z,102603.69
2023-05-17T15:22:31.875Z,102601.63
2023-05-17T15:24:58.427Z,102600.63
2023-05-17T15:27:25.013Z,102599.59
2023-05-17T15:29:51.559Z,102600.34
2023-05-17T15:32:18.121Z,102592.97
2023-05-17T15:34:45.471Z,102599.31
2023-05-17T15:37:12.100Z,102591.78
2023-05-17T15:39:38.645Z,102588.88
2023-05-17T15:42:05.493Z,102586.13
2023-05-17T15:44:32.020Z,102591.31
2023-05-17T15:47:00.324Z,102586.69
2023-05-17T15:49:28.300Z,102591.16
2023-05-17T15:51:54.924Z,102585.50
2023-05-17T15:54:21.448Z,102587.25
2023-05-17T15:56:47.950Z,102587.09
2023-05-17T15:59:15.610Z,102601.53
2023-05-17T16:01:42.282Z,102589.50
2023-05-17T16:04:08.846Z,102585.75
2023-05-17T16:06:36.700Z,102583.69
2023-05-17T16:09:03.448Z,102593.66
2023-05-17T16:11:30.119Z,102596.25
2023-05-17T16:13:57.138Z,102588.88
2023-05-17T16:16:23.868Z,102593.34
2023-05-17T16:18:50.630Z,102592.34
2023-05-17T16:21:17.301Z,102594.94
2023-05-17T16:23:43.874Z,102590.31
2023-05-17T16:26:10.768Z,102583.81
2023-05-17T16:28:37.419Z,102589.13
2023-05-17T16:31:05.380Z,102585.38
2023-05-17T16:33:32.221Z,102590.88
2023-05-17T16:35:59.170Z,102588.81
2023-05-17T16:38:26.195Z,102592.28
2023-05-17T16:40:52.781Z,102595.03
2023-05-17T16:43:19.458Z,102591.25
2023-05-17T16:45:46.343Z,102594.88
2023-05-17T16:48:17.503Z,102590.94
2023-05-17T16:50:44.232Z,102600.91
2023-05-17T16:53:10.789Z,102608.13
2023-05-17T16:55:37.472Z,102604.34
2023-05-17T16:58:04.944Z,102608.66
2023-05-17T17:00:32.126Z,102605.75
2023-05-17T17:02:59.069Z,102608.34
2023-05-17T17:05:28.984Z,102611.47
2023-05-17T17:07:55.531Z,102607.94
2023-05-17T17:10:22.040Z,102621.28
2023-05-17T17:12:49.388Z,102613.84
2023-05-17T17:15:16.047Z,102611.59
2023-05-17T17:17:42.737Z,102615.66
2023-05-17T17:20:09.903Z,102614.25
2023-05-17T17:22:36.482Z,102612.97
2023-05-17T17:25:03.279Z,102617.47
2023-05-17T17:27:29.870Z,102612.53
2023-05-17T17:29:56.493Z,102622.53
2023-05-17T17:32:23.135Z,102625.81
2023-05-17T17:34:49.785Z,102629.44
2023-05-17T17:37:16.437Z,102625.13
2023-05-17T17:39:43.068Z,102627.19
2023-05-17T17:42:10.573Z,102624.94
2023-05-17T17:44:37.259Z,102622.66
2023-05-17T17:47:03.986Z,102633.31
2023-05-17T17:49:30.529Z,102625.91
2023-05-17T17:51:58.238Z,102624.84
2023-05-17T17:54:24.869Z,102625.69
2023-05-17T17:56:52.272Z,102626.50
2023-05-17T17:59:18.859Z,102625.28
2023-05-17T18:01:45.555Z,102626.97
2023-05-17T18:04:13.603Z,102630.22
2023-05-17T18:06:41.849Z,102632.78
2023-05-17T18:09:08.704Z,102631.56
2023-05-17T18:11:35.333Z,102639.41
2023-05-17T18:14:02.603Z,102638.88
2023-05-17T18:16:29.413Z,102637.47
2023-05-17T18:18:56.354Z,102637.97
2023-05-17T18:21:23.187Z,102640.19
2023-05-17T18:23:49.793Z,102644.28
2023-05-17T18:26:16.329Z,102639.09
2023-05-17T18:28:43.287Z,102640.31
2023-05-17T18:31:10.563Z,102640.78
2023-05-17T18:33:37.203Z,102637.50
2023-05-17T18:36:03.961Z,102638.66
2023-05-17T18:38:30.547Z,102633.47
2023-05-17T18:40:57.124Z,102639.31
2023-05-17T18:43:23.687Z,102638.75
2023-05-17T18:45:51.335Z,102644.59
2023-05-17T18:48:18.809Z,102646.78
2023-05-17T18:50:45.739Z,102639.03
2023-05-17T18:53:13.048Z,102648.63
2023-05-17T18:55:39.910Z,102645.16
2023-05-17T18:58:06.938Z,102650.09
2023-05-17T19:00:33.806Z,102653.16
2023-05-17T19:03:00.446Z,102648.84
2023-05-17T19:05:26.959Z,102651.75
2023-05-17T19:07:53.438Z,102656.53
2023-05-17T19:10:20.750Z,102659.44
2023-05-17T19:12:47.436Z,102665.25
2023-05-17T19:15:13.955Z,102661.81
2023-05-17T19:17:40.605Z,102662.13
2023-05-17T19:20:08.029Z,102666.75
2023-05-17T19:22:35.763Z,102673.28
2023-05-17T19:25:02.402Z,102672.56
2023-05-17T19:27:29.713Z,102662.59
2023-05-17T19:29:56.356Z,102668.25
2023-05-17T19:32:22.982Z,102674.94
2023-05-17T19:34:49.904Z,102677.84
2023-05-17T19:37:16.682Z,102679.88
2023-05-17T19:39:43.276Z,102684.66
2023-05-17T19:42:09.892Z,102681.22
2023-05-17T19:44:36.428Z,102681.38
2023-05-17T19:47:02.961Z,102681.53
2023-05-17T19:49:29.590Z,102689.06
2023-05-17T19:52:00.534Z,102687.31
2023-05-17T19:54:30.460Z,102691.09
2023-05-17T19:56:57.534Z,102686.75
2023-05-17T19:59:24.144Z,102691.38
2023-05-17T20:01:51.236Z,102694.28
2023-05-17T20:04:17.886Z,102690.66
2023-05-17T20:06:44.616Z,102698.91
2023-05-17T20:09:11.221Z,102690.81
2023-05-17T20:11:38.021Z,102692.72
2023-05-17T20:14:04.549Z,102693.00
2023-05-17T20:16:31.250Z,102691.13
2023-05-17T20:18:58.444Z,102693.00
2023-05-17T20:21:26.335Z,102695.75
2023-05-17T20:24:00.609Z,102697.66
2023-05-17T20:26:31.748Z,102690.56
2023-05-17T20:28:59.058Z,102692.47
2023-05-17T20:31:26.072Z,102689.88
2023-05-17T20:33:52.974Z,102690.88
2023-05-17T20:36:19.600Z,102686.41
2023-05-17T20:38:46.191Z,102686.56
2023-05-17T20:41:14.876Z,102686.41
2023-05-17T20:43:47.255Z,102688.31
2023-05-17T20:46:14.069Z,102685.72
2023-05-17T20:48:42.893Z,102691.19
2023-05-17T20:51:10.703Z,102695.81
2023-05-17T20:53:38.435Z,102693.09
2023-05-17T20:56:06.415Z,102693.94
2023-05-17T20:58:33.210Z,102695.81
2023-05-17T21:01:01.013Z,102703.19
2023-05-17T21:03:29.030Z,102698.72
2023-05-17T21:05:55.826Z,102697.00
2023-05-17T21:08:22.845Z,102688.75
2023-05-17T21:10:49.981Z,102695.28
2023-05-17T21:13:16.612Z,102695.28
2023-05-17T21:15:44.034Z,102698.03
2023-05-17T21:18:11.522Z,102702.66
2023-05-17T21:20:38.977Z,102707.28
2023-05-17T21:23:05.733Z,102705.53
2023-05-17T21:25:32.549Z,102701.06
2023-05-17T21:27:59.624Z,102704.69
2023-05-17T21:30:26.588Z,102705.69
2023-05-17T21:32:53.237Z,102705.69
2023-05-17T21:35:20.072Z,102701.19
2023-05-17T21:37:47.548Z,102711.31
2023-05-17T21:40:14.670Z,102712.19
2023-05-17T21:42:41.645Z,102713.19
2023-05-17T21:45:08.644Z,102717.81
2023-05-17T21:47:36.021Z,102715.06
2023-05-17T21:50:04.079Z,102707.84
2023-05-17T21:52:30.693Z,102712.47
2023-05-17T21:54:57.255Z,102705.09
2023-05-17T21:57:23.946Z,102705.25
2023-05-17T21:59:51.264Z,102705.25
2023-05-17T22:02:18.224Z,102705.25
2023-05-17T22:04:44.820Z,102703.53
2023-05-17T22:07:13.172Z,102703.53
2023-05-17T22:09:39.991Z,102703.53
2023-05-17T22:12:08.391Z,102705.41
2023-05-17T22:14:36.411Z,102706.44
2023-05-17T22:17:07.931Z,102714.50
2023-05-17T22:19:40.275Z,102710.03
2023-05-17T22:22:07.878Z,102704.72
2023-05-17T22:24:34.480Z,102706.44
2023-05-17T22:27:01.217Z,102707.44
2023-05-17T22:29:27.923Z,102709.34
2023-05-17T22:31:54.524Z,102710.34
2023-05-17T22:34:21.845Z,102713.09
2023-05-17T22:36:48.816Z,102720.16
2023-05-17T22:39:15.330Z,102711.94
2023-05-17T22:41:41.849Z,102708.16
2023-05-17T22:44:08.359Z,102719.16
2023-05-17T22:46:35.125Z,102724.63
2023-05-17T22:49:01.681Z,102720.00
2023-05-17T22:51:29.952Z,102725.50
2023-05-17T22:53:56.898Z,102722.75
2023-05-17T22:56:23.419Z,102717.25
2023-05-17T22:58:49.927Z,102720.88
2023-05-17T23:01:16.504Z,102721.72
2023-05-17T23:03:43.100Z,102714.50
2023-05-17T23:06:09.701Z,102721.72
2023-05-17T23:08:36.197Z,102726.38
2023-05-17T23:11:04.823Z,102718.13
2023-05-17T23:13:31.414Z,102723.63
2023-05-17T23:15:57.984Z,102724.63
2023-05-17T23:18:27.404Z,102726.38
2023-05-17T23:20:54.126Z,102721.03
2023-05-17T23:23:23.088Z,102725.50
2023-05-17T23:25:50.821Z,102722.91
2023-05-17T23:28:18.651Z,102721.03
2023-05-17T23:30:48.626Z,102733.75
2023-05-17T23:33:16.212Z,102733.03
2023-05-17T23:35:42.744Z,102731.16
2023-05-17T23:38:09.298Z,102731.16
2023-05-17T23:40:37.054Z,102727.53
2023-05-17T23:43:04.263Z,102724.78
2023-05-17T23:45:31.261Z,102721.19
2023-05-17T23:48:00.839Z,102718.44
2023-05-17T23:50:27.594Z,102713.97
2023-05-17T23:52:54.231Z,102719.44
2023-05-17T23:55:22.390Z,102712.22
2023-05-17T23:57:49.315Z,102714.97
